createdAt,value
2023-05-25T00:03:55.453Z,99183.13
2023-05-25T00:08:59.702Z,99190.56
2023-05-25T00:14:02.590Z,99188.78
2023-05-25T00:19:07.039Z,99192.63
2023-05-25T00:24:11.349Z,99179.66
2023-05-25T00:29:14.950Z,99191.66
2023-05-25T00:34:17.838Z,99179.69
2023-05-25T00:39:22.541Z,99167.88
2023-05-25T00:44:25.592Z,99179.56
2023-05-25T00:49:31.769Z,99174.81
2023-05-25T00:54:37.706Z,99175.34
2023-05-25T00:59:45.576Z,99170.22
2023-05-25T01:04:53.025Z,99171.72
2023-05-25T01:10:01.597Z,99172.72
2023-05-25T01:15:05.858Z,99165.13
2023-05-25T01:20:11.642Z,99155.16
2023-05-25T01:25:22.632Z,99156.84
2023-05-25T01:30:28.564Z,99155.84
2023-05-25T01:35:32.763Z,99154.91
2023-05-25T01:40:36.919Z,99153.38
2023-05-25T01:45:40.553Z,99154.44
2023-05-25T01:50:51.636Z,99156.59
2023-05-25T01:56:00.192Z,99157.00
2023-05-25T02:01:05.206Z,99144.78
2023-05-25T02:06:08.896Z,99151.13
2023-05-25T02:11:14.277Z,99155.72
2023-05-25T02:16:17.230Z,99155.81
2023-05-25T02:21:21.540Z,99151.72
2023-05-25T02:26:26.559Z,99154.00
2023-05-25T02:31:29.485Z,99154.88
2023-05-25T02:36:32.453Z,99155.03
2023-05-25T02:41:36.566Z,99152.78
2023-05-25T02:46:39.411Z,99147.25
2023-05-25T02:51:42.523Z,99149.13
2023-05-25T02:56:46.923Z,99160.69
2023-05-25T03:01:52.235Z,99162.63
2023-05-25T03:06:56.333Z,99175.25
2023-05-25T03:12:00.895Z,99177.66
2023-05-25T03:17:04.684Z,99180.63
2023-05-25T03:22:07.583Z,99184.09
2023-05-25T03:27:12.218Z,99178.53
2023-05-25T03:32:15.252Z,99185.47
2023-05-25T03:37:18.567Z,99189.34
2023-05-25T03:42:22.885Z,99186.47
2023-05-25T03:47:26.265Z,99180.03
2023-05-25T03:52:29.186Z,99189.72
2023-05-25T03:57:33.526Z,99201.50
2023-05-25T04:02:36.527Z,99209.97
2023-05-25T04:07:40.754Z,99203.31
2023-05-25T04:25:19.919Z,99213.66
2023-05-25T04:30:25.467Z,99224.56
2023-05-25T04:35:50.473Z,99230.81
2023-05-25T04:40:56.243Z,99227.31
2023-05-25T04:46:01.451Z,99227.13
2023-05-25T04:51:06.775Z,99244.38
2023-05-25T04:56:10.549Z,99247.19
2023-05-25T05:01:15.931Z,99257.84
2023-05-25T05:06:19.431Z,99260.41
2023-05-25T05:11:24.255Z,99276.94
2023-05-25T05:16:33.879Z,99283.72
2023-05-25T05:21:37.452Z,99290.81
2023-05-25T05:26:56.699Z,99304.06
2023-05-25T05:32:11.847Z,99304.06
2023-05-25T05:37:14.943Z,99309.09
2023-05-25T05:55:21.910Z,99309.75
2023-05-25T06:00:27.659Z,99296.69
2023-05-25T06:05:30.473Z,99298.03
2023-05-25T06:10:37.400Z,99295.31
2023-05-25T06:15:41.698Z,99297.16
2023-05-25T06:20:48.749Z,99306.81
2023-05-25T06:25:54.390Z,99312.81
2023-05-25T06:30:57.852Z,99316.13
2023-05-25T06:36:02.483Z,99312.56
2023-05-25T06:41:07.736Z,99317.13
2023-05-25T06:46:11.550Z,99314.06
2023-05-25T06:51:14.744Z,99311.22
2023-05-25T06:56:18.821Z,99320.91
2023-05-25T07:01:21.791Z,99318.78
2023-05-25T07:06:24.613Z,99323.56
2023-05-25T07:11:31.869Z,99311.91
2023-05-25T07:16:34.793Z,99318.63
2023-05-25T07:21:40.384Z,99324.41
2023-05-25T07:26:45.788Z,99323.97
2023-05-25T07:31:49.332Z,99322.13
2023-05-25T07:36:52.792Z,99325.53
2023-05-25T07:41:57.732Z,99319.66
2023-05-25T07:47:01.475Z,99323.03
2023-05-25T07:52:06.427Z,99320.75
2023-05-25T07:57:13.987Z,99316.88
2023-05-25T08:02:17.827Z,99315.97
2023-05-25T08:07:21.142Z,99323.31
2023-05-25T08:12:46.134Z,99316.91
2023-05-25T08:17:51.019Z,99321.13
2023-05-25T08:22:54.483Z,99327.09
2023-05-25T08:27:59.055Z,99320.50
2023-05-25T08:33:02.530Z,99321.19
2023-05-25T08:38:05.707Z,99315.97
2023-05-25T08:43:10.808Z,99312.00
2023-05-25T08:53:31.322Z,99321.91
2023-05-25T08:58:44.109Z,99316.22
2023-05-25T09:03:48.217Z,99316.06
2023-05-25T09:08:52.412Z,99328.34
2023-05-25T09:13:58.865Z,99321.00
2023-05-25T09:19:02.600Z,99318.09
2023-05-25T09:24:06.325Z,99320.22
2023-05-25T09:29:10.895Z,99331.56
2023-05-25T09:34:16.026Z,99326.66
2023-05-25T09:39:19.020Z,99324.94
2023-05-25T09:44:26.901Z,99331.91
2023-05-25T09:49:30.921Z,99327.78
2023-05-25T09:54:33.766Z,99314.97
2023-05-25T09:59:38.725Z,99322.50
2023-05-25T10:04:43.423Z,99315.53
2023-05-25T10:09:49.897Z,99320.28
2023-05-25T10:14:57.003Z,99321.47
2023-05-25T10:20:03.154Z,99320.13
2023-05-25T10:25:13.871Z,99320.72
2023-05-25T10:30:19.889Z,99321.59
2023-05-25T10:35:25.914Z,99316.75
2023-05-25T10:40:32.655Z,99305.06
2023-05-25T10:45:37.909Z,99321.84
2023-05-25T10:50:42.142Z,99311.53
2023-05-25T10:55:51.509Z,99302.44
2023-05-25T11:01:03.669Z,99296.63
2023-05-25T11:06:09.096Z,99299.13
2023-05-25T11:11:11.930Z,99297.78
2023-05-25T11:16:24.410Z,99292.78
2023-05-25T11:21:46.949Z,99287.19
2023-05-25T11:27:01.512Z,99297.88
2023-05-25T11:32:15.609Z,99289.81
2023-05-25T11:37:21.105Z,99273.22
2023-05-25T11:42:25.424Z,99261.47
2023-05-25T11:47:31.836Z,99263.41
2023-05-25T11:52:36.092Z,99261.75
2023-05-25T11:57:40.358Z,99258.25
2023-05-25T12:02:44.996Z,99260.50
2023-05-25T12:07:48.179Z,99266.41
2023-05-25T12:12:54.470Z,99262.81
2023-05-25T12:17:58.719Z,99250.78
2023-05-25T12:23:01.994Z,99243.50
2023-05-25T12:28:11.128Z,99240.97
2023-05-25T12:33:16.053Z,99240.13
2023-05-25T12:38:21.576Z,99234.41
2023-05-25T12:43:25.046Z,99229.84
2023-05-25T12:48:30.036Z,99228.66
2023-05-25T12:53:33.714Z,99229.56
2023-05-25T12:58:37.482Z,99230.25
2023-05-25T13:03:41.677Z,99222.34
2023-05-25T13:08:44.517Z,99222.00
2023-05-25T13:13:47.337Z,99229.44
2023-05-25T13:18:51.547Z,99208.84
2023-05-25T13:23:54.499Z,99214.84
2023-05-25T13:28:57.787Z,99206.34
2023-05-25T13:34:03.049Z,99208.25
2023-05-25T13:39:08.105Z,99200.59
2023-05-25T13:44:13.664Z,99202.75
2023-05-25T13:49:19.795Z,99199.22
2023-05-25T13:54:25.227Z,99196.34
2023-05-25T13:59:30.398Z,99198.28
2023-05-25T14:04:35.664Z,99194.97
2023-05-25T14:09:38.468Z,99193.84
2023-05-25T14:14:44.363Z,99189.94
2023-05-25T14:19:48.691Z,99185.56
2023-05-25T14:24:52.203Z,99189.56
2023-05-25T14:29:55.158Z,99187.09
2023-05-25T14:34:59.717Z,99182.19
2023-05-25T14:40:03.167Z,99182.63
2023-05-25T14:45:08.711Z,99179.16
2023-05-25T14:50:15.503Z,99180.09
2023-05-25T14:55:18.783Z,99187.63
2023-05-25T15:00:21.718Z,99190.44
2023-05-25T15:05:26.236Z,99184.72
2023-05-25T15:10:29.687Z,99176.84
2023-05-25T15:15:32.609Z,99176.41
2023-05-25T15:20:37.320Z,99176.56
2023-05-25T15:25:41.694Z,99176.28
2023-05-25T15:30:44.596Z,99166.47
2023-05-25T15:35:48.894Z,99170.34
2023-05-25T15:40:51.887Z,99168.75
2023-05-25T15:45:54.857Z,99177.66
2023-05-25T15:50:59.067Z,99176.00
2023-05-25T15:56:02.241Z,99176.00
2023-05-25T16:01:06.372Z,99174.19
2023-05-25T16:06:11.378Z,99184.66
2023-05-25T16:11:14.264Z,99188.72
2023-05-25T16:16:19.077Z,99183.78
2023-05-25T16:21:23.269Z,99172.38
2023-05-25T16:26:27.090Z,99171.50
2023-05-25T16:31:30.018Z,99177.59
2023-05-25T16:36:34.216Z,99185.25
2023-05-25T16:41:37.984Z,99194.50
2023-05-25T16:46:40.957Z,99188.56
2023-05-25T16:51:46.460Z,99192.00
2023-05-25T16:56:50.141Z,99186.22
2023-05-25T17:01:53.108Z,99186.84
2023-05-25T17:06:57.559Z,99172.41
2023-05-25T17:12:01.792Z,99187.00
2023-05-25T17:17:05.333Z,99191.91
2023-05-25T17:22:09.537Z,99182.28
2023-05-25T17:27:12.258Z,99184.16
2023-05-25T17:32:15.228Z,99181.16
2023-05-25T17:37:20.998Z,99184.00
2023-05-25T17:42:24.356Z,99181.31
2023-05-25T17:47:31.427Z,99184.63
2023-05-25T18:05:36.215Z,99201.91
2023-05-25T18:10:39.409Z,99208.41
2023-05-25T18:15:43.987Z,99213.38
2023-05-25T18:20:48.491Z,99223.50
2023-05-25T18:25:52.634Z,99213.00
2023-05-25T18:30:55.432Z,99209.47
2023-05-25T18:35:59.780Z,99211.34
2023-05-25T18:41:02.722Z,99221.63
2023-05-25T18:46:07.115Z,99217.28
2023-05-25T18:51:11.538Z,99227.09
2023-05-25T18:56:16.343Z,99233.47
2023-05-25T19:01:19.569Z,99232.75
2023-05-25T19:06:23.784Z,99238.69
2023-05-25T19:11:26.701Z,99241.31
2023-05-25T19:16:30.233Z,99244.47
2023-05-25T19:21:34.522Z,99248.78
2023-05-25T19:26:39.279Z,99254.22
2023-05-25T19:31:42.083Z,99267.97
2023-05-25T19:36:47.087Z,99273.13
2023-05-25T19:41:52.526Z,99271.34
2023-05-25T19:46:55.355Z,99283.78
2023-05-25T19:51:59.913Z,99282.19
2023-05-25T19:57:03.520Z,99303.59
2023-05-25T20:02:07.188Z,99304.72
2023-05-25T20:07:11.735Z,99300.69
2023-05-25T20:12:17.997Z,99315.06
2023-05-25T20:17:20.792Z,99323.56
2023-05-25T20:22:26.500Z,99325.72
2023-05-25T20:27:29.565Z,99328.56
2023-05-25T20:32:32.458Z,99333.34
2023-05-25T20:37:37.514Z,99344.47
2023-05-25T20:42:40.442Z,99340.31
2023-05-25T20:47:43.630Z,99345.78
2023-05-25T20:52:48.169Z,99346.28
2023-05-25T20:57:51.196Z,99351.94
2023-05-25T21:02:54.105Z,99358.72
2023-05-25T21:07:58.837Z,99354.41
2023-05-25T21:13:01.666Z,99362.94
2023-05-25T21:18:05.586Z,99360.25
2023-05-25T21:23:10.142Z,99367.19
2023-05-25T21:28:12.979Z,99370.16
2023-05-25T21:33:15.988Z,99363.09
2023-05-25T21:38:20.826Z,99361.38
2023-05-25T21:43:23.629Z,99367.97
2023-05-25T21:48:27.216Z,99368.09
2023-05-25T21:53:31.732Z,99383.59
2023-05-25T21:58:34.505Z,99380.78
2023-05-25T22:03:37.340Z,99388.81
2023-05-25T22:08:42.013Z,99384.31
2023-05-25T22:13:44.792Z,99376.63
2023-05-25T22:18:47.654Z,99378.69
2023-05-25T22:23:51.902Z,99379.97
2023-05-25T22:28:55.249Z,99389.28
2023-05-25T22:33:58.162Z,99388.72
2023-05-25T22:39:02.772Z,99393.88
2023-05-25T22:44:06.347Z,99388.00
2023-05-25T22:49:09.116Z,99395.38
2023-05-25T22:54:14.190Z,99407.19
2023-05-25T22:59:16.964Z,99411.94
2023-05-25T23:04:19.965Z,99392.97
2023-05-25T23:09:24.522Z,99398.66
2023-05-25T23:14:27.260Z,99394.63
2023-05-25T23:19:30.132Z,99388.03
2023-05-25T23:24:34.305Z,99393.47
2023-05-25T23:29:37.416Z,99395.19
2023-05-25T23:34:40.202Z,99397.75
2023-05-25T23:39:44.633Z,99404.06
2023-05-25T23:44:47.612Z,99401.69
2023-05-25T23:49:50.423Z,99403.09
2023-05-25T23:54:54.642Z,99405.63
2023-05-25T23:59:57.419Z,99401.00
